Bagshot, United Kingdom
Current Conditions -  °F | °C
As of 4:50 PM on Friday 28 Nov 2014 (Local Time) from EGLF Reporting Station
Clear Clear  
Wind Chill: 50°   Ceiling: Unl
Heat Index: 50°   Visibility: 4mi
Dew Point: 46°   Wind: 10mph
Humidity: 87%   Direction: 60°ENE
Pressure: 29.62"   Gusts: NA
Location:  51.36°N, 0.69°W
Report Text: EGLF 281650Z 06009KT 7000 NSC 10/08 Q1003
Loading
Personal Weather Stations






























Interactive Weather Map New forecast layout! Learn more

10-Day Weather Forecast

Advertisements
Track Severe Weather on mobile